Time;durP1;ratioP1;P1;durP2;ratioP2;P2;SDS_P1;SDS_P2;PMS_P1;PMS_P2;Temp;Humidity;BMP_temperature;BMP_pressure;BME280_temperature;BME280_humidity;BME280_pressure;Samples;Min_cycle;Max_cycle;Signal;HPM_P1;HPM_P2
2022/01/21 00:01:04;;;;;;;3.42;2.60;;;18.40;34.10;;;;;;5106346;27;46870;-21
2022/01/21 00:03:30;;;;;;;4.20;2.60;;;18.40;34.10;;;;;;5105461;27;47905;-20
2022/01/21 00:05:57;;;;;;;3.22;2.10;;;18.40;34.10;;;;;;5105626;27;47003;-21
2022/01/21 00:08:24;;;;;;;3.80;2.40;;;18.40;34.10;;;;;;5105734;27;47020;-20
2022/01/21 00:10:51;;;;;;;3.45;2.58;;;18.40;34.00;;;;;;5105935;27;47184;-20
2022/01/21 00:13:23;;;;;;;4.10;2.42;;;18.40;34.00;;;;;;5105540;27;48207;-21
2022/01/21 00:15:49;;;;;;;3.00;2.55;;;18.40;34.10;;;;;;5105888;27;46826;-21
2022/01/21 00:18:19;;;;;;;2.95;2.15;;;18.40;34.10;;;;;;5105401;27;47000;-20
2022/01/21 00:31:41;;;;;;;3.10;2.50;;;18.40;34.00;;;;;;5106440;27;46885;-21
2022/01/21 00:34:09;;;;;;;2.95;2.47;;;18.40;34.00;;;;;;5108213;27;47933;-20
2022/01/21 00:36:36;;;;;;;4.20;2.03;;;18.30;33.90;;;;;;5108771;27;47049;-20
2022/01/21 00:39:04;;;;;;;2.60;2.35;;;18.30;33.90;;;;;;5109098;27;47100;-20
2022/01/21 00:41:34;;;;;;;3.30;2.13;;;18.40;33.90;;;;;;5108967;27;47288;-20
2022/01/21 00:44:01;;;;;;;2.95;2.53;;;18.40;34.00;;;;;;5108585;27;49070;-20
2022/01/21 00:46:28;;;;;;;3.15;2.25;;;18.40;33.90;;;;;;5109143;27;46933;-20
2022/01/21 00:48:54;;;;;;;2.83;2.08;;;18.30;33.80;;;;;;5108947;27;46828;-20
2022/01/21 00:51:22;;;;;;;4.40;2.20;;;18.40;33.90;;;;;;5108859;27;46887;-21
2022/01/21 00:53:49;;;;;;;2.50;1.88;;;18.30;33.90;;;;;;5108520;27;49077;-20
2022/01/21 00:56:16;;;;;;;3.15;2.35;;;18.30;33.90;;;;;;5108933;27;47124;-20
2022/01/21 00:58:42;;;;;;;4.72;2.20;;;18.30;33.90;;;;;;5108487;27;46845;-20
2022/01/21 01:01:09;;;;;;;2.63;2.03;;;18.30;33.80;;;;;;5109237;27;47280;-20
2022/01/21 01:03:36;;;;;;;2.70;2.00;;;18.30;33.80;;;;;;5108466;27;48020;-21
2022/01/21 01:06:03;;;;;;;2.80;2.20;;;18.30;33.80;;;;;;5108508;27;47057;-21
2022/01/21 01:08:31;;;;;;;3.22;2.17;;;18.30;33.80;;;;;;5108502;27;46899;-20
2022/01/21 01:11:17;;;;;;;3.00;2.03;;;18.30;33.80;;;;;;5108754;27;46841;-20
2022/01/21 01:21:57;;;;;;;2.80;2.30;;;18.40;33.70;;;;;;5105863;27;46943;-21
2022/01/21 01:29:53;;;;;;;3.20;2.10;;;18.40;33.70;;;;;;5105655;27;46883;-20
2022/01/21 01:32:20;;;;;;;2.70;1.95;;;18.40;33.70;;;;;;5107682;27;46870;-20
2022/01/21 01:34:46;;;;;;;2.45;1.70;;;18.40;33.70;;;;;;5107728;27;48898;-20
2022/01/21 01:37:26;;;;;;;3.05;1.90;;;18.40;33.60;;;;;;5108096;27;46735;-20
2022/01/21 01:40:11;;;;;;;1.85;1.70;;;18.40;33.60;;;;;;5108243;27;46874;-20
2022/01/21 01:50:50;;;;;;;2.17;1.80;;;18.40;33.50;;;;;;5105161;27;46876;-21
2022/01/21 01:53:17;;;;;;;2.25;1.80;;;18.40;33.50;;;;;;5107481;27;47098;-21
2022/01/21 01:55:46;;;;;;;2.40;1.80;;;18.40;33.40;;;;;;5107443;27;46831;-20
2022/01/21 01:58:14;;;;;;;1.88;1.67;;;18.40;33.40;;;;;;5107289;27;47431;-20
2022/01/21 02:00:41;;;;;;;2.33;1.92;;;18.40;33.50;;;;;;5107778;27;46919;-20
2022/01/21 02:03:08;;;;;;;3.45;1.90;;;18.40;33.40;;;;;;5107707;27;46945;-21
2022/01/21 02:05:35;;;;;;;2.50;1.75;;;18.40;33.50;;;;;;5107341;27;46890;-20
2022/01/21 02:08:01;;;;;;;2.53;1.77;;;18.40;33.40;;;;;;5107042;27;47052;-22
2022/01/21 02:10:28;;;;;;;1.60;1.50;;;18.40;33.40;;;;;;5107973;27;46906;-20
2022/01/21 02:13:03;;;;;;;1.80;1.67;;;18.40;33.30;;;;;;5107547;27;47287;-20
2022/01/21 02:15:30;;;;;;;2.05;1.50;;;18.40;33.30;;;;;;5107588;27;47950;-20
2022/01/21 02:23:27;;;;;;;2.13;1.83;;;18.40;33.40;;;;;;5105564;27;46793;-20
2022/01/21 02:25:54;;;;;;;1.92;1.67;;;18.40;33.40;;;;;;5107324;27;46903;-20
2022/01/21 02:28:20;;;;;;;2.72;1.60;;;18.40;33.90;;;;;;5107142;27;46846;-21
2022/01/21 02:30:53;;;;;;;2.08;1.60;;;18.40;33.20;;;;;;5107293;27;46892;-21
2022/01/21 02:33:19;;;;;;;2.63;1.60;;;18.50;33.30;;;;;;5106650;27;46857;-20
2022/01/21 02:35:46;;;;;;;2.45;1.60;;;18.50;33.20;;;;;;5107122;27;48775;-20
2022/01/21 02:38:13;;;;;;;1.70;1.40;;;18.50;33.20;;;;;;5107008;27;46844;-21
2022/01/21 02:40:41;;;;;;;2.40;1.70;;;18.40;33.20;;;;;;5106888;27;46805;-20
2022/01/21 02:43:07;;;;;;;3.50;1.80;;;18.40;33.20;;;;;;5105820;27;46872;-21
2022/01/21 02:45:36;;;;;;;2.22;1.77;;;18.40;33.20;;;;;;5107070;27;48045;-20
2022/01/21 02:48:04;;;;;;;2.30;1.60;;;18.50;33.20;;;;;;5106719;27;46875;-20
2022/01/21 02:50:31;;;;;;;1.90;1.40;;;18.50;33.20;;;;;;5107240;27;46816;-21
2022/01/21 02:53:10;;;;;;;2.17;1.52;;;18.40;33.10;;;;;;5107106;27;46942;-20
2022/01/21 02:55:37;;;;;;;1.95;1.45;;;18.40;33.10;;;;;;5106730;27;48822;-20
2022/01/21 02:58:05;;;;;;;2.17;1.75;;;18.40;33.10;;;;;;5106676;27;46910;-20
2022/01/21 03:00:32;;;;;;;2.30;1.50;;;18.40;33.10;;;;;;5106720;27;46916;-21
2022/01/21 03:02:58;;;;;;;1.73;1.52;;;18.40;33.10;;;;;;5106918;27;46895;-20
2022/01/21 03:05:25;;;;;;;2.28;1.42;;;18.40;33.10;;;;;;5106582;27;47952;-20
2022/01/21 03:07:52;;;;;;;3.05;1.77;;;18.40;33.10;;;;;;5106547;27;46933;-20
2022/01/21 03:10:18;;;;;;;1.77;1.40;;;18.40;33.00;;;;;;5106455;27;46781;-20
2022/01/21 03:12:45;;;;;;;2.15;1.42;;;18.40;33.00;;;;;;5106851;27;47087;-21
2022/01/21 03:15:13;;;;;;;1.77;1.63;;;18.40;33.10;;;;;;5106462;27;46849;-20
2022/01/21 03:17:40;;;;;;;2.13;1.55;;;18.40;33.00;;;;;;5106485;27;46925;-20
2022/01/21 03:20:08;;;;;;;2.35;1.65;;;18.40;33.00;;;;;;5106578;27;46881;-20
2022/01/21 03:22:36;;;;;;;2.05;1.50;;;18.40;33.00;;;;;;5106362;27;46997;-20
2022/01/21 03:25:03;;;;;;;2.38;1.75;;;18.40;33.00;;;;;;5106105;27;47986;-20
2022/01/21 03:27:29;;;;;;;1.75;1.50;;;18.40;33.00;;;;;;5105964;27;47160;-20
2022/01/21 03:29:57;;;;;;;2.60;1.80;;;18.40;33.00;;;;;;5106447;27;46955;-22
2022/01/21 03:32:25;;;;;;;2.50;1.48;;;18.40;33.00;;;;;;5106343;27;46904;-20
2022/01/21 03:34:52;;;;;;;2.58;1.67;;;18.40;33.00;;;;;;5105859;27;48878;-20
2022/01/21 03:37:18;;;;;;;1.42;1.30;;;18.40;33.00;;;;;;5106225;27;46954;-20
2022/01/21 03:39:45;;;;;;;2.15;1.50;;;18.40;33.00;;;;;;5105947;27;47280;-20
2022/01/21 03:42:12;;;;;;;1.50;1.40;;;18.40;33.00;;;;;;5106382;27;46826;-21
2022/01/21 03:44:38;;;;;;;1.88;1.67;;;18.40;33.00;;;;;;5105969;27;49044;-21
2022/01/21 03:47:05;;;;;;;2.15;1.50;;;18.40;33.00;;;;;;5105947;27;46873;-20
2022/01/21 03:49:38;;;;;;;2.53;1.55;;;18.40;33.00;;;;;;5106053;27;46881;-20
2022/01/21 03:52:05;;;;;;;2.63;1.60;;;18.40;33.00;;;;;;5106399;27;46877;-20
2022/01/21 03:54:32;;;;;;;1.60;1.50;;;18.40;33.00;;;;;;5105317;27;47944;-20
2022/01/21 03:56:59;;;;;;;1.63;1.27;;;18.40;33.00;;;;;;5105819;27;46782;-20
2022/01/21 03:59:26;;;;;;;1.63;1.27;;;18.40;33.00;;;;;;5105824;27;47136;-20
2022/01/21 04:01:53;;;;;;;3.25;1.60;;;18.40;32.90;;;;;;5106276;27;46870;-20
2022/01/21 04:04:19;;;;;;;3.03;1.42;;;18.40;32.90;;;;;;5105695;27;47930;-20
2022/01/21 04:06:47;;;;;;;2.33;1.70;;;18.40;32.90;;;;;;5105911;27;46815;-20
2022/01/21 04:09:15;;;;;;;2.65;1.60;;;18.40;33.00;;;;;;5105804;27;46915;-20
2022/01/21 04:11:42;;;;;;;2.47;1.50;;;18.40;32.90;;;;;;5105769;27;47301;-20
2022/01/21 04:14:08;;;;;;;4.00;1.50;;;18.40;32.90;;;;;;5105619;27;47918;-21
2022/01/21 04:16:35;;;;;;;1.65;1.30;;;18.40;32.90;;;;;;5105396;27;47164;-20
2022/01/21 04:19:02;;;;;;;2.25;1.38;;;18.40;32.90;;;;;;5105722;27;46798;-20
2022/01/21 04:21:28;;;;;;;1.73;1.33;;;18.40;32.90;;;;;;5105644;27;46935;-19
2022/01/21 04:23:57;;;;;;;1.95;1.48;;;18.30;32.90;;;;;;5105164;27;47929;-20
2022/01/21 04:26:24;;;;;;;2.15;1.40;;;18.40;32.90;;;;;;5105587;27;46905;-20
2022/01/21 04:28:50;;;;;;;2.00;1.45;;;18.40;32.90;;;;;;5105385;27;46815;-20
2022/01/21 04:31:17;;;;;;;1.73;1.50;;;18.40;32.90;;;;;;5105580;27;46943;-20
2022/01/21 04:33:44;;;;;;;2.05;1.55;;;18.40;32.80;;;;;;5104837;27;49040;-20
2022/01/21 04:36:10;;;;;;;2.05;1.45;;;18.40;32.90;;;;;;5105394;27;46867;-21
2022/01/21 04:38:38;;;;;;;2.53;1.27;;;18.30;32.80;;;;;;5105181;27;46814;-21
2022/01/21 04:41:21;;;;;;;2.83;1.55;;;18.30;32.80;;;;;;5105197;27;46859;-20
2022/01/21 04:49:16;;;;;;;2.25;1.67;;;18.40;32.80;;;;;;5104479;27;46952;-21
2022/01/21 04:52:02;;;;;;;3.90;1.85;;;18.40;32.80;;;;;;5105638;27;47078;-20
2022/01/21 04:54:28;;;;;;;2.08;1.42;;;18.40;32.80;;;;;;5105161;27;48578;-20
2022/01/21 04:56:56;;;;;;;2.80;1.52;;;18.30;32.80;;;;;;5105207;27;46779;-20
2022/01/21 04:59:23;;;;;;;2.42;1.60;;;18.30;32.80;;;;;;5105303;27;47176;-20
2022/01/21 05:01:50;;;;;;;2.45;1.45;;;18.30;32.80;;;;;;5104958;27;46869;-21
2022/01/21 05:04:18;;;;;;;2.33;1.58;;;18.30;32.80;;;;;;5104518;27;48218;-20
2022/01/21 05:06:45;;;;;;;2.85;1.38;;;18.30;32.70;;;;;;5106528;27;46896;-20
2022/01/21 05:09:11;;;;;;;1.95;1.48;;;18.30;32.70;;;;;;5108149;27;46872;-20
2022/01/21 05:11:38;;;;;;;1.80;1.45;;;18.30;32.70;;;;;;5108821;27;47143;-20
2022/01/21 05:14:16;;;;;;;3.40;1.45;;;18.30;32.70;;;;;;5108271;27;48175;-21
2022/01/21 05:16:46;;;;;;;2.85;1.58;;;18.30;32.80;;;;;;5108467;27;46998;-20
2022/01/21 05:19:15;;;;;;;2.15;1.35;;;18.30;32.70;;;;;;5108077;27;46887;-21
2022/01/21 05:21:42;;;;;;;2.13;1.50;;;18.30;32.70;;;;;;5108560;27;46891;-20
2022/01/21 05:24:08;;;;;;;2.25;1.45;;;18.30;32.60;;;;;;5107993;27;47992;-20
2022/01/21 05:26:37;;;;;;;3.03;1.35;;;18.30;32.60;;;;;;5107938;27;46817;-20
2022/01/21 05:29:04;;;;;;;1.85;1.50;;;18.30;32.60;;;;;;5108310;27;47013;-21
2022/01/21 05:31:32;;;;;;;1.55;1.38;;;18.30;32.70;;;;;;5108400;27;46899;-21
2022/01/21 05:33:59;;;;;;;1.45;1.35;;;18.30;32.70;;;;;;5107551;27;48381;-20
2022/01/21 05:36:26;;;;;;;3.10;1.55;;;18.30;32.70;;;;;;5107933;27;46834;-21
2022/01/21 05:38:53;;;;;;;1.90;1.33;;;18.30;32.60;;;;;;5107758;27;46912;-20
2022/01/21 05:41:22;;;;;;;2.33;1.50;;;18.30;32.60;;;;;;5108379;27;46919;-21
2022/01/21 05:43:49;;;;;;;2.67;1.58;;;18.30;32.60;;;;;;5107724;27;48072;-21
2022/01/21 05:46:29;;;;;;;2.30;1.63;;;18.30;32.60;;;;;;5107704;27;46899;-21
2022/01/21 05:48:57;;;;;;;1.77;1.23;;;18.30;32.60;;;;;;5107642;27;46896;-21
2022/01/21 05:51:24;;;;;;;2.05;1.50;;;18.30;32.70;;;;;;5108300;27;46936;-21
2022/01/21 05:53:51;;;;;;;1.92;1.55;;;18.30;32.60;;;;;;5107480;27;46814;-22
2022/01/21 05:56:18;;;;;;;2.25;1.60;;;18.30;32.50;;;;;;5107644;27;47251;-21
2022/01/21 05:58:44;;;;;;;3.17;1.38;;;18.30;32.50;;;;;;5107414;27;46876;-20
2022/01/21 06:01:11;;;;;;;3.20;1.50;;;18.30;32.50;;;;;;5107957;27;47185;-20
2022/01/21 06:03:38;;;;;;;2.17;1.45;;;18.30;32.50;;;;;;5107465;27;47897;-20
2022/01/21 06:06:06;;;;;;;2.78;1.88;;;18.30;32.50;;;;;;5107599;27;47277;-19
2022/01/21 06:08:32;;;;;;;1.40;1.30;;;18.30;32.50;;;;;;5107074;27;47014;-20
2022/01/21 06:10:59;;;;;;;1.60;1.50;;;18.30;32.50;;;;;;5107777;27;46907;-20
2022/01/21 06:13:26;;;;;;;2.05;1.38;;;18.30;32.50;;;;;;5106914;27;47061;-20
2022/01/21 06:15:54;;;;;;;2.35;1.58;;;18.30;32.40;;;;;;5107277;27;47531;-20
2022/01/21 06:18:21;;;;;;;1.98;1.60;;;18.30;32.40;;;;;;5106714;27;46917;-20
2022/01/21 06:20:48;;;;;;;2.15;1.48;;;18.30;33.10;;;;;;5107568;27;46825;-19
2022/01/21 06:23:16;;;;;;;2.58;1.40;;;18.20;32.40;;;;;;5106693;27;48763;-20
2022/01/21 06:25:43;;;;;;;3.20;1.50;;;18.30;32.40;;;;;;5106593;27;46987;-20
2022/01/21 06:28:10;;;;;;;1.65;1.50;;;18.30;32.40;;;;;;5106147;27;46926;-21
2022/01/21 06:30:37;;;;;;;1.50;1.40;;;18.30;32.40;;;;;;5107252;27;47013;-20
2022/01/21 06:33:03;;;;;;;2.72;1.73;;;18.30;32.40;;;;;;5106502;27;48704;-21
2022/01/21 06:35:30;;;;;;;3.05;1.50;;;18.30;32.40;;;;;;5107053;27;47460;-20
2022/01/21 06:37:57;;;;;;;2.25;1.60;;;18.20;32.40;;;;;;5106259;27;46846;-20
2022/01/21 06:40:25;;;;;;;3.05;1.80;;;18.30;32.50;;;;;;5106598;27;46982;-21
2022/01/21 06:42:52;;;;;;;2.05;1.40;;;18.30;32.40;;;;;;5106418;27;46956;-20
2022/01/21 06:45:18;;;;;;;2.38;1.48;;;18.30;32.40;;;;;;5106090;27;47075;-20
2022/01/21 06:47:46;;;;;;;1.80;1.60;;;18.30;32.40;;;;;;5105705;27;47076;-21
2022/01/21 06:50:13;;;;;;;1.83;1.63;;;18.30;33.00;;;;;;5097241;27;47124;-20
2022/01/21 06:52:39;;;;;;;2.67;1.90;;;18.30;32.40;;;;;;5085893;28;47948;-20
2022/01/21 06:55:07;;;;;;;1.65;1.40;;;18.30;32.40;;;;;;5086340;28;46892;-20
2022/01/21 06:57:38;;;;;;;2.03;1.55;;;18.30;32.40;;;;;;5086139;27;46911;-20
2022/01/21 07:00:08;;;;;;;3.13;1.45;;;18.30;32.40;;;;;;5081365;28;47191;-20
2022/01/21 07:02:34;;;;;;;2.53;2.00;;;18.30;32.20;;;;;;5076967;27;48969;-21
2022/01/21 07:05:02;;;;;;;2.58;1.70;;;18.30;32.30;;;;;;5079275;28;47060;-21
2022/01/21 07:07:29;;;;;;;1.60;1.50;;;18.30;32.20;;;;;;5064823;28;47017;-20
2022/01/21 07:09:56;;;;;;;2.60;1.67;;;18.30;32.40;;;;;;5064766;28;46890;-20
2022/01/21 07:12:22;;;;;;;2.08;1.88;;;18.30;32.40;;;;;;5065859;28;48244;-20
2022/01/21 07:14:51;;;;;;;2.00;1.42;;;18.30;32.30;;;;;;5065583;28;46930;-21
2022/01/21 07:17:18;;;;;;;2.95;1.67;;;18.30;32.20;;;;;;5065197;28;46988;-21
2022/01/21 07:19:45;;;;;;;1.73;1.63;;;18.30;32.20;;;;;;5065760;28;46825;-21
2022/01/21 07:22:13;;;;;;;5.40;1.63;;;18.30;32.20;;;;;;5075258;28;47816;-21
2022/01/21 07:24:41;;;;;;;2.70;1.60;;;18.30;32.20;;;;;;5079854;28;46924;-21
2022/01/21 07:27:08;;;;;;;2.97;1.75;;;18.30;32.20;;;;;;5084263;28;46965;-22
2022/01/21 07:29:35;;;;;;;1.58;1.48;;;18.30;32.30;;;;;;5083500;27;46927;-21
2022/01/21 07:32:03;;;;;;;2.75;1.92;;;18.30;32.30;;;;;;5085917;28;49053;-22
2022/01/21 07:34:30;;;;;;;3.08;2.00;;;18.30;32.20;;;;;;5085131;28;47125;-21
2022/01/21 07:36:56;;;;;;;1.42;1.33;;;18.30;32.20;;;;;;5085708;28;47008;-20
2022/01/21 07:39:23;;;;;;;2.17;1.60;;;18.40;32.20;;;;;;5086237;28;46849;-21
2022/01/21 07:41:50;;;;;;;2.45;2.08;;;18.40;32.20;;;;;;5085754;28;48250;-21
2022/01/21 07:44:17;;;;;;;2.28;1.55;;;18.30;32.20;;;;;;5085287;28;46738;-21
2022/01/21 07:46:44;;;;;;;2.33;1.48;;;18.30;32.20;;;;;;5085409;28;46814;-21
2022/01/21 07:49:13;;;;;;;2.95;1.48;;;18.40;32.20;;;;;;5086260;28;47170;-14
2022/01/21 07:51:40;;;;;;;3.63;1.67;;;18.40;31.70;;;;;;5084486;28;48170;-15
2022/01/21 07:54:07;;;;;;;2.30;1.50;;;18.40;32.10;;;;;;5083604;28;47052;-14
2022/01/21 07:56:33;;;;;;;1.80;1.60;;;18.40;32.10;;;;;;5085298;27;46872;-14
2022/01/21 07:59:00;;;;;;;2.35;1.50;;;18.40;32.10;;;;;;5085508;28;47278;-14
2022/01/21 08:01:27;;;;;;;1.90;1.60;;;18.40;32.10;;;;;;5085523;28;47885;-14
2022/01/21 08:03:53;;;;;;;2.53;1.50;;;18.40;32.10;;;;;;5085353;28;46898;-14
2022/01/21 08:06:22;;;;;;;2.85;1.80;;;18.40;32.10;;;;;;5085592;28;46778;-14
2022/01/21 08:08:48;;;;;;;2.90;1.60;;;18.40;32.10;;;;;;5084521;28;47324;-15
2022/01/21 08:11:15;;;;;;;2.00;1.50;;;18.40;32.00;;;;;;5085050;28;47925;-14
2022/01/21 08:13:42;;;;;;;3.42;1.58;;;18.40;32.10;;;;;;5084776;28;46897;-14
2022/01/21 08:16:09;;;;;;;1.95;1.75;;;18.40;32.10;;;;;;5084995;28;46881;-15
2022/01/21 08:18:36;;;;;;;1.60;1.50;;;18.40;32.10;;;;;;5085162;28;46939;-14
2022/01/21 08:21:03;;;;;;;2.28;1.85;;;18.40;32.10;;;;;;5085121;28;47821;-14
2022/01/21 08:23:31;;;;;;;1.67;1.52;;;18.40;32.00;;;;;;5084928;28;47366;-13
2022/01/21 08:25:57;;;;;;;3.35;1.95;;;18.40;32.00;;;;;;5084967;28;46826;-14
2022/01/21 08:28:24;;;;;;;2.40;1.60;;;18.40;32.00;;;;;;5085037;28;47107;-14
2022/01/21 08:30:51;;;;;;;3.05;1.92;;;18.50;32.00;;;;;;5085040;28;47957;-14
2022/01/21 08:33:17;;;;;;;3.45;1.77;;;18.40;31.80;;;;;;5084541;28;46819;-15
2022/01/21 08:35:44;;;;;;;5.72;2.65;;;18.40;31.80;;;;;;5084567;28;46827;-14
2022/01/21 08:38:11;;;;;;;4.20;2.45;;;18.40;31.30;;;;;;5084835;28;47063;-14
2022/01/21 08:40:40;;;;;;;3.33;2.28;;;18.40;31.70;;;;;;5085681;28;46916;-15
2022/01/21 08:43:07;;;;;;;3.92;2.20;;;18.40;31.50;;;;;;5066837;28;47425;-14
2022/01/21 08:45:33;;;;;;;2.60;1.95;;;18.40;31.80;;;;;;5066996;28;47128;-14
2022/01/21 08:48:00;;;;;;;5.60;2.30;;;18.40;31.90;;;;;;5068145;28;46955;-14
2022/01/21 08:50:28;;;;;;;3.65;2.33;;;18.40;31.90;;;;;;5067582;28;47949;-13
2022/01/21 08:53:07;;;;;;;2.92;1.83;;;18.40;31.90;;;;;;5068055;28;46896;-14
2022/01/21 08:55:35;;;;;;;3.55;2.05;;;18.40;31.90;;;;;;5067360;28;46978;-13
2022/01/21 08:58:03;;;;;;;3.25;2.00;;;18.50;31.80;;;;;;5067302;28;46964;-15
2022/01/21 09:00:29;;;;;;;3.38;2.08;;;18.50;31.80;;;;;;5067570;28;47961;-14
2022/01/21 09:02:56;;;;;;;3.72;2.40;;;18.50;31.80;;;;;;5067660;28;46889;-14
2022/01/21 09:05:23;;;;;;;3.42;1.85;;;18.50;31.80;;;;;;5067919;28;46809;-13
2022/01/21 09:07:49;;;;;;;3.53;2.08;;;18.60;31.90;;;;;;5067749;28;47271;-13
2022/01/21 09:10:16;;;;;;;2.80;1.90;;;18.60;31.80;;;;;;5067437;28;46938;-14
2022/01/21 09:12:43;;;;;;;2.67;1.80;;;18.60;31.90;;;;;;5067353;28;46882;-14
2022/01/21 09:15:11;;;;;;;4.18;2.10;;;18.60;31.80;;;;;;5067661;28;47021;-14
2022/01/21 09:17:39;;;;;;;3.13;2.08;;;18.60;31.80;;;;;;5067901;28;46917;-21
2022/01/21 09:20:09;;;;;;;4.05;2.20;;;18.60;31.80;;;;;;5067416;28;47068;-21
2022/01/21 09:22:35;;;;;;;4.90;2.20;;;18.70;31.80;;;;;;5067047;28;46930;-21
2022/01/21 09:25:02;;;;;;;3.15;1.92;;;18.70;31.80;;;;;;5067741;28;46764;-21
2022/01/21 09:27:29;;;;;;;2.53;1.85;;;18.60;31.80;;;;;;5065738;28;47015;-21
2022/01/21 09:29:55;;;;;;;4.72;1.90;;;18.70;31.80;;;;;;5067003;28;48958;-22
2022/01/21 09:32:24;;;;;;;3.92;1.90;;;18.70;31.80;;;;;;5067386;28;46905;-22
2022/01/21 09:34:50;;;;;;;2.42;1.63;;;18.70;31.70;;;;;;5066918;28;47008;-23
2022/01/21 09:37:17;;;;;;;4.25;2.00;;;18.70;31.80;;;;;;5067333;28;46918;-21
2022/01/21 09:39:44;;;;;;;2.50;1.83;;;18.70;31.80;;;;;;5067060;28;48223;-21
2022/01/21 09:42:12;;;;;;;4.68;2.00;;;18.70;31.80;;;;;;5066912;28;46855;-21
2022/01/21 09:44:39;;;;;;;3.38;2.08;;;18.70;31.80;;;;;;5067073;28;46962;-21
2022/01/21 09:47:06;;;;;;;5.03;2.08;;;18.70;31.90;;;;;;5067370;28;46883;-21
2022/01/21 09:49:34;;;;;;;3.70;1.83;;;18.70;31.90;;;;;;5078132;28;48117;-21
2022/01/21 09:52:03;;;;;;;3.97;2.13;;;18.70;31.90;;;;;;5081460;27;47086;-21
2022/01/21 09:54:32;;;;;;;4.25;2.22;;;18.70;32.00;;;;;;5087157;28;46940;-14
2022/01/21 09:56:59;;;;;;;6.20;2.03;;;18.70;32.00;;;;;;5086860;28;46908;-14
2022/01/21 09:59:27;;;;;;;3.67;1.88;;;18.70;32.10;;;;;;5085415;28;47841;-14
2022/01/21 10:01:56;;;;;;;3.67;2.00;;;18.70;32.10;;;;;;5086936;28;47031;-14
2022/01/21 10:04:26;;;;;;;2.72;1.63;;;18.70;31.90;;;;;;5085395;27;47050;-15
2022/01/21 10:06:54;;;;;;;6.65;2.00;;;18.60;32.00;;;;;;5085626;28;46863;-14
2022/01/21 10:09:22;;;;;;;5.55;2.15;;;18.70;32.10;;;;;;5084768;28;47910;-14
2022/01/21 10:11:50;;;;;;;5.85;2.08;;;18.70;32.00;;;;;;5086728;28;46899;-14
2022/01/21 10:14:17;;;;;;;5.72;1.90;;;18.70;32.00;;;;;;5086641;28;46887;-14
2022/01/21 10:16:45;;;;;;;3.85;1.90;;;18.70;31.90;;;;;;5087192;28;46945;-14
2022/01/21 10:19:12;;;;;;;4.75;2.17;;;18.70;31.90;;;;;;5086287;28;46898;-14
2022/01/21 10:21:42;;;;;;;3.85;1.90;;;18.70;31.80;;;;;;5086704;28;46948;-14
2022/01/21 10:24:11;;;;;;;3.80;1.55;;;18.80;31.90;;;;;;5086427;28;47068;-14
2022/01/21 10:26:48;;;;;;;2.80;2.03;;;18.80;31.90;;;;;;5086949;28;47157;-14
2022/01/21 10:29:15;;;;;;;5.03;2.13;;;18.80;31.80;;;;;;5086628;27;48102;-13
2022/01/21 10:31:51;;;;;;;2.75;1.50;;;18.80;31.70;;;;;;5085770;28;47127;-14
2022/01/21 10:34:23;;;;;;;4.07;1.83;;;18.80;31.70;;;;;;5084406;28;47045;-14
2022/01/21 10:36:55;;;;;;;3.75;1.55;;;18.80;31.50;;;;;;5086539;27;47075;-15
2022/01/21 10:39:30;;;;;;;5.57;2.10;;;18.80;32.10;;;;;;5084391;28;47340;-14
2022/01/21 10:41:57;;;;;;;2.78;1.77;;;18.90;31.70;;;;;;5084959;28;47028;-14
2022/01/21 10:44:25;;;;;;;2.38;1.60;;;18.90;31.60;;;;;;5084517;28;47161;-14
2022/01/21 10:47:02;;;;;;;3.78;1.67;;;18.90;31.70;;;;;;5084668;28;47219;-14
2022/01/21 10:49:28;;;;;;;3.10;1.50;;;18.90;31.50;;;;;;5084267;28;48886;-14
2022/01/21 10:51:56;;;;;;;3.78;1.48;;;19.00;31.50;;;;;;5084468;28;46906;-14
2022/01/21 10:54:26;;;;;;;5.72;1.90;;;19.00;31.60;;;;;;5085018;28;46972;-14
2022/01/21 10:57:06;;;;;;;1.85;1.48;;;19.00;31.50;;;;;;5085781;28;47012;-15
2022/01/21 10:59:56;;;;;;;2.92;1.70;;;19.10;31.50;;;;;;5084021;28;46877;-14
2022/01/21 11:02:39;;;;;;;3.72;1.60;;;19.10;31.50;;;;;;5085295;28;47172;-14
2022/01/21 11:05:10;;;;;;;4.90;2.42;;;19.10;31.40;;;;;;5084920;28;46833;-14
2022/01/21 11:08:07;;;;;;;5.25;2.10;;;19.10;31.40;;;;;;5085755;27;46977;-14
2022/01/21 11:10:52;;;;;;;3.08;1.58;;;19.20;31.30;;;;;;5073158;27;48067;-14
2022/01/21 11:13:27;;;;;;;3.55;1.67;;;19.20;31.20;;;;;;5085856;27;47178;-14
2022/01/21 11:15:56;;;;;;;1.95;1.60;;;19.30;31.10;;;;;;5085723;28;46786;-14
2022/01/21 11:18:23;;;;;;;2.92;1.83;;;19.30;31.00;;;;;;5085652;28;47325;-14
2022/01/21 11:20:55;;;;;;;2.67;1.92;;;19.30;31.00;;;;;;5085772;28;48813;-15
2022/01/21 11:23:23;;;;;;;4.40;1.88;;;19.40;31.00;;;;;;5085429;28;47401;-14
2022/01/21 11:25:51;;;;;;;2.50;1.40;;;19.30;30.50;;;;;;5085129;28;46866;-14
2022/01/21 11:28:20;;;;;;;3.78;1.55;;;19.40;30.80;;;;;;5084069;28;47023;-14
2022/01/21 11:30:47;;;;;;;5.57;2.35;;;19.40;30.80;;;;;;5084577;28;49063;-14
2022/01/21 11:33:14;;;;;;;2.15;1.70;;;19.50;30.70;;;;;;5085069;28;46933;-14
2022/01/21 11:35:40;;;;;;;7.40;2.20;;;19.50;30.70;;;;;;5085586;28;46976;-14
2022/01/21 11:38:09;;;;;;;2.20;1.35;;;19.60;30.50;;;;;;5085413;28;46972;-14
2022/01/21 11:40:36;;;;;;;4.32;1.52;;;19.60;30.40;;;;;;5085647;28;46918;-14
2022/01/21 11:43:03;;;;;;;3.80;1.67;;;19.70;31.00;;;;;;5085312;28;47002;-14
2022/01/21 11:45:43;;;;;;;3.65;1.80;;;19.70;30.30;;;;;;5085645;28;46879;-14
2022/01/21 11:50:59;;;;;;;1.48;1.38;;;19.70;30.30;;;;;;5085099;28;47668;-13
2022/01/21 11:53:44;;;;;;;5.45;1.65;;;19.70;30.30;;;;;;5085085;28;46991;-13
2022/01/21 11:56:32;;;;;;;1.85;1.38;;;19.70;30.30;;;;;;5084705;28;46993;-13
2022/01/21 11:59:04;;;;;;;3.85;1.67;;;19.70;30.30;;;;;;5079263;28;47115;-15
2022/01/21 12:01:36;;;;;;;3.08;1.60;;;19.70;30.30;;;;;;5085444;28;48995;-14
2022/01/21 12:04:04;;;;;;;1.63;1.52;;;19.70;30.30;;;;;;5084871;28;47427;-14
2022/01/21 12:06:31;;;;;;;2.10;1.40;;;19.70;30.50;;;;;;5085657;27;46991;-14
2022/01/21 12:08:59;;;;;;;3.22;1.80;;;19.70;30.40;;;;;;5085055;28;47285;-14
2022/01/21 12:11:30;;;;;;;3.17;1.58;;;19.70;30.30;;;;;;5085021;28;49059;-14
2022/01/21 12:13:57;;;;;;;3.63;1.52;;;19.70;30.20;;;;;;5084691;28;46932;-14
2022/01/21 12:16:49;;;;;;;3.85;1.48;;;19.70;30.10;;;;;;5088181;28;46900;-14
2022/01/21 12:19:24;;;;;;;3.05;1.30;;;19.80;30.20;;;;;;5088406;28;47070;-13
2022/01/21 12:21:51;;;;;;;3.58;1.58;;;19.80;30.10;;;;;;5088290;28;47958;-14
2022/01/21 12:24:54;;;;;;;3.78;1.80;;;19.90;30.20;;;;;;5088387;28;46827;-13
2022/01/21 12:27:21;;;;;;;3.60;1.40;;;20.00;30.20;;;;;;5088339;27;47100;-15
2022/01/21 12:29:48;;;;;;;6.10;1.50;;;20.00;30.10;;;;;;5088428;28;46916;-14
2022/01/21 12:32:24;;;;;;;3.72;1.67;;;20.00;30.00;;;;;;5088371;28;47924;-14
2022/01/21 12:35:15;;;;;;;3.92;1.30;;;20.10;30.00;;;;;;5087965;28;46915;-14
2022/01/21 12:39:05;;;;;;;2.80;1.40;;;20.10;29.90;;;;;;5088152;28;46873;-14
2022/01/21 12:41:02;;;;;;;2.38;1.52;;;20.10;30.00;;;;;;5088699;28;47043;-14
2022/01/21 12:43:39;;;;;;;3.53;1.33;;;20.10;29.90;;;;;;5088194;28;47850;-14
2022/01/21 12:46:07;;;;;;;2.95;1.40;;;20.10;29.90;;;;;;5088385;28;47028;-14
2022/01/21 12:48:36;;;;;;;4.22;1.73;;;20.10;30.00;;;;;;5087703;28;46960;-14
2022/01/21 12:51:14;;;;;;;5.45;1.63;;;20.10;30.00;;;;;;5088253;28;47097;-14
2022/01/21 12:55:55;;;;;;;1.73;1.33;;;20.00;30.00;;;;;;5088067;28;47182;-13
2022/01/21 12:56:28;;;;;;;5.70;1.45;;;19.90;30.00;;;;;;5087848;28;46900;-14
2022/01/21 12:58:55;;;;;;;3.58;1.30;;;19.90;30.10;;;;;;5087617;28;46968;-14
2022/01/21 13:01:21;;;;;;;3.47;1.70;;;19.90;30.00;;;;;;5088435;28;47308;-14
2022/01/21 13:03:52;;;;;;;2.92;1.40;;;19.80;30.00;;;;;;5087463;28;47996;-14
2022/01/21 13:06:25;;;;;;;5.15;1.60;;;19.80;30.60;;;;;;5087826;28;46866;-14
2022/01/21 13:09:00;;;;;;;3.50;1.20;;;19.70;30.00;;;;;;5087728;28;46987;-13
2022/01/21 13:11:29;;;;;;;2.10;1.10;;;19.70;30.10;;;;;;5086764;28;47009;-14
2022/01/21 13:14:22;;;;;;;1.85;1.20;;;19.60;30.30;;;;;;5080783;28;48116;-14
2022/01/21 13:16:54;;;;;;;2.03;1.20;;;19.60;30.40;;;;;;5087551;28;46991;-14
2022/01/21 13:19:22;;;;;;;2.45;1.10;;;19.50;30.30;;;;;;5086215;28;46927;-14
2022/01/21 13:21:49;;;;;;;2.65;1.27;;;19.40;30.40;;;;;;5087493;28;46928;-13
2022/01/21 13:24:25;;;;;;;2.47;1.30;;;19.40;30.50;;;;;;5087196;28;48100;-13
2022/01/21 13:26:53;;;;;;;6.47;1.60;;;19.40;30.60;;;;;;5086141;27;46804;-13
2022/01/21 13:29:20;;;;;;;3.05;1.52;;;19.30;30.70;;;;;;5087276;28;46900;-14
2022/01/21 13:31:54;;;;;;;2.53;1.13;;;19.30;30.80;;;;;;5087338;28;46933;-13
2022/01/21 13:34:23;;;;;;;4.80;1.50;;;19.20;30.80;;;;;;5086857;28;48930;-14
2022/01/21 13:36:51;;;;;;;2.17;1.20;;;19.20;30.90;;;;;;5087414;28;46888;-14
2022/01/21 13:39:20;;;;;;;2.42;1.30;;;19.20;30.90;;;;;;5086764;28;46946;-15
2022/01/21 13:41:59;;;;;;;2.65;1.23;;;19.20;30.80;;;;;;5087561;28;46924;-14
2022/01/21 13:44:31;;;;;;;4.10;1.60;;;19.20;30.90;;;;;;5086527;28;47884;-13